createdAt,value
2023-03-21T00:00:41.883Z,0.00
2023-03-21T00:01:41.853Z,0.00
2023-03-21T00:02:41.870Z,0.00
2023-03-21T00:03:41.862Z,0.00
2023-03-21T00:04:51.224Z,0.00
2023-03-21T00:05:42.254Z,0.00
2023-03-21T00:06:41.802Z,0.00
2023-03-21T00:07:41.784Z,0.00
2023-03-21T00:08:41.778Z,0.00
2023-03-21T00:09:41.764Z,0.00
2023-03-21T00:10:43.977Z,0.00
2023-03-21T00:11:41.738Z,0.00
2023-03-21T00:12:41.732Z,0.00
2023-03-21T00:13:41.743Z,0.00
2023-03-21T00:14:41.716Z,0.00
2023-03-21T00:15:51.262Z,0.00
2023-03-21T00:16:41.813Z,0.00
2023-03-21T00:17:41.669Z,0.00
2023-03-21T00:18:41.722Z,0.00
2023-03-21T00:19:41.646Z,0.00
2023-03-21T00:20:41.638Z,0.00
2023-03-21T00:22:03.238Z,0.00
2023-03-21T00:22:41.613Z,0.00
2023-03-21T00:23:41.609Z,0.00
2023-03-21T00:24:41.600Z,0.00
2023-03-21T00:25:41.584Z,0.00
2023-03-21T00:26:41.576Z,0.00
2023-03-21T00:28:01.097Z,0.00
2023-03-21T00:28:41.543Z,0.00
2023-03-21T00:29:41.558Z,0.00
2023-03-21T00:30:41.519Z,0.00
2023-03-21T00:31:41.510Z,0.00
2023-03-21T00:32:55.266Z,0.00
2023-03-21T00:33:41.490Z,0.00
2023-03-21T00:34:43.454Z,0.00
2023-03-21T00:35:58.451Z,0.00
2023-03-21T00:36:41.506Z,0.00
2023-03-21T00:37:41.452Z,0.00
2023-03-21T00:38:41.459Z,0.00
2023-03-21T00:39:41.437Z,0.00
2023-03-21T00:40:48.814Z,0.00
2023-03-21T00:41:43.233Z,0.00
2023-03-21T00:42:41.384Z,0.00
2023-03-21T00:43:41.371Z,0.00
2023-03-21T00:44:41.365Z,0.00
2023-03-21T00:45:41.378Z,0.00
2023-03-21T00:46:57.064Z,0.00
2023-03-21T00:47:41.437Z,0.00
2023-03-21T00:48:41.337Z,0.00
2023-03-21T00:49:41.305Z,0.00
2023-03-21T00:50:41.296Z,0.00
2023-03-21T00:51:41.284Z,0.00
2023-03-21T00:52:41.642Z,0.00
2023-03-21T00:53:41.263Z,0.00
2023-03-21T00:54:41.248Z,0.00
2023-03-21T00:55:41.244Z,0.00
2023-03-21T00:56:41.230Z,0.00
2023-03-21T00:57:42.327Z,0.00
2023-03-21T00:58:41.203Z,0.00
2023-03-21T00:59:41.193Z,0.00
2023-03-21T01:00:41.198Z,0.00
2023-03-21T01:01:41.308Z,0.00
2023-03-21T01:02:41.964Z,0.00
2023-03-21T01:03:41.150Z,0.00
2023-03-21T01:04:41.136Z,0.00
2023-03-21T01:05:41.125Z,0.00
2023-03-21T01:06:41.118Z,0.00
2023-03-21T01:07:41.105Z,0.00
2023-03-21T01:08:53.234Z,0.00
2023-03-21T01:09:41.090Z,0.00
2023-03-21T01:10:41.075Z,0.00
2023-03-21T01:11:41.061Z,0.00
2023-03-21T01:12:41.047Z,0.00
2023-03-21T01:13:52.990Z,0.00
2023-03-21T01:14:41.023Z,0.00
2023-03-21T01:15:41.011Z,0.00
2023-03-21T01:16:41.034Z,0.00
2023-03-21T01:17:41.018Z,0.00
2023-03-21T01:18:40.987Z,0.00
2023-03-21T01:19:51.717Z,0.00
2023-03-21T01:20:40.955Z,0.00
2023-03-21T01:21:40.978Z,0.00
2023-03-21T01:22:40.936Z,0.00
2023-03-21T01:23:40.921Z,0.00
2023-03-21T01:24:52.506Z,0.00
2023-03-21T01:25:40.902Z,0.00
2023-03-21T01:26:40.892Z,0.00
2023-03-21T01:27:40.883Z,0.00
2023-03-21T01:28:40.864Z,0.00
2023-03-21T01:29:40.925Z,0.00
2023-03-21T01:30:42.071Z,0.00
2023-03-21T01:31:40.877Z,0.00
2023-03-21T01:32:40.818Z,0.00
2023-03-21T01:33:40.841Z,0.00
2023-03-21T01:34:40.804Z,0.00
2023-03-21T01:35:50.167Z,0.00
2023-03-21T01:36:40.820Z,0.00
2023-03-21T01:37:40.775Z,0.00
2023-03-21T01:38:40.750Z,0.00
2023-03-21T01:39:40.745Z,0.00
2023-03-21T01:40:40.727Z,0.00
2023-03-21T01:41:43.304Z,0.00
2023-03-21T01:42:40.710Z,0.00
2023-03-21T01:43:40.701Z,0.00
2023-03-21T01:44:40.682Z,0.00
2023-03-21T01:45:40.751Z,0.00
2023-03-21T01:46:49.678Z,0.00
2023-03-21T01:47:40.704Z,0.00
2023-03-21T01:48:40.637Z,0.00
2023-03-21T01:49:40.653Z,0.00
2023-03-21T01:50:40.620Z,0.00
2023-03-21T01:51:40.608Z,0.00
2023-03-21T01:52:40.649Z,0.00
2023-03-21T01:53:40.596Z,0.00
2023-03-21T01:54:40.574Z,0.00
2023-03-21T01:55:40.559Z,0.00
2023-03-21T01:56:40.560Z,0.00
2023-03-21T01:57:47.282Z,0.00
2023-03-21T01:58:40.530Z,0.00
2023-03-21T01:59:40.520Z,0.00
2023-03-21T02:00:40.559Z,0.00
2023-03-21T02:01:40.498Z,0.00
2023-03-21T02:02:40.480Z,0.00
2023-03-21T02:03:40.550Z,0.00
2023-03-21T02:04:40.458Z,0.00
2023-03-21T02:05:40.467Z,0.00
2023-03-21T02:06:40.434Z,0.00
2023-03-21T02:07:40.424Z,0.00
2023-03-21T02:08:40.414Z,0.00
2023-03-21T02:09:40.449Z,0.00
2023-03-21T02:10:40.391Z,0.00
2023-03-21T02:11:40.378Z,0.00
2023-03-21T02:12:40.365Z,0.00
2023-03-21T02:13:40.371Z,0.00
2023-03-21T02:14:40.342Z,0.00
2023-03-21T02:15:40.335Z,0.00
2023-03-21T02:16:40.327Z,0.00
2023-03-21T02:17:40.313Z,0.00
2023-03-21T02:18:40.308Z,0.00
2023-03-21T02:19:50.949Z,0.00
2023-03-21T02:20:40.283Z,0.00
2023-03-21T02:21:40.305Z,0.00
2023-03-21T02:22:40.254Z,0.00
2023-03-21T02:23:40.245Z,0.00
2023-03-21T02:24:42.694Z,0.00
2023-03-21T02:25:40.283Z,0.00
2023-03-21T02:26:42.918Z,0.00
2023-03-21T02:27:40.197Z,0.00
2023-03-21T02:28:40.191Z,0.00
2023-03-21T02:29:40.175Z,0.00
2023-03-21T02:30:51.264Z,0.00
2023-03-21T02:31:40.225Z,0.00
2023-03-21T02:32:40.139Z,0.00
2023-03-21T02:33:40.133Z,0.00
2023-03-21T02:34:40.117Z,0.00
2023-03-21T02:35:47.142Z,0.00
2023-03-21T02:36:40.127Z,0.00
2023-03-21T02:37:40.344Z,0.00
2023-03-21T02:38:40.069Z,0.00
2023-03-21T02:39:40.066Z,0.00
2023-03-21T02:40:40.139Z,0.00
2023-03-21T02:41:40.718Z,0.00
2023-03-21T02:42:41.067Z,0.00
2023-03-21T02:43:40.023Z,0.00
2023-03-21T02:44:40.008Z,0.00
2023-03-21T02:45:40.011Z,0.00
2023-03-21T02:46:44.169Z,0.00
2023-03-21T02:47:40.093Z,0.00
2023-03-21T02:48:50.289Z,0.00
2023-03-21T02:49:39.948Z,0.00
2023-03-21T02:50:39.936Z,0.00
2023-03-21T02:51:39.924Z,0.00
2023-03-21T02:52:40.005Z,0.00
2023-03-21T02:53:39.930Z,0.00
2023-03-21T02:54:48.086Z,0.00
2023-03-21T02:55:39.881Z,0.00
2023-03-21T02:56:39.874Z,0.00
2023-03-21T02:57:43.190Z,0.00
2023-03-21T02:58:39.852Z,0.00
2023-03-21T02:59:51.635Z,0.00
2023-03-21T03:00:39.840Z,0.00
2023-03-21T03:01:39.897Z,0.00
2023-03-21T03:02:39.802Z,0.00
2023-03-21T03:03:39.787Z,0.00
2023-03-21T03:04:39.898Z,0.00
2023-03-21T03:05:39.770Z,0.00
2023-03-21T03:06:39.757Z,0.00
2023-03-21T03:07:39.773Z,0.00
2023-03-21T03:08:47.536Z,0.00
2023-03-21T03:09:39.754Z,0.00
2023-03-21T03:10:39.781Z,0.00
2023-03-21T03:11:39.707Z,0.00
2023-03-21T03:12:39.692Z,0.00
2023-03-21T03:13:39.686Z,0.00
2023-03-21T03:14:53.164Z,0.00
2023-03-21T03:15:39.733Z,0.00
2023-03-21T03:16:39.645Z,0.00
2023-03-21T03:17:39.650Z,0.00
2023-03-21T03:18:39.620Z,0.00
2023-03-21T03:19:49.753Z,0.00
2023-03-21T03:20:40.090Z,0.00
2023-03-21T03:21:39.591Z,0.00
2023-03-21T03:22:39.578Z,0.00
2023-03-21T03:23:39.573Z,0.00
2023-03-21T03:24:39.557Z,0.00
2023-03-21T03:25:43.301Z,0.00
2023-03-21T03:26:39.547Z,0.00
2023-03-21T03:27:39.527Z,0.00
2023-03-21T03:28:39.514Z,0.00
2023-03-21T03:29:39.556Z,0.00
2023-03-21T03:30:44.993Z,0.00
2023-03-21T03:31:39.535Z,0.00
2023-03-21T03:32:39.468Z,0.00
2023-03-21T03:33:39.461Z,0.00
2023-03-21T03:34:39.447Z,0.00
2023-03-21T03:35:39.454Z,0.00
2023-03-21T03:36:39.476Z,0.00
2023-03-21T03:37:39.410Z,0.00
2023-03-21T03:38:39.395Z,0.00
2023-03-21T03:39:39.383Z,0.00
2023-03-21T03:40:39.619Z,0.00
2023-03-21T03:42:07.880Z,0.00
2023-03-21T03:42:39.353Z,0.00
2023-03-21T03:43:39.344Z,0.00
2023-03-21T03:44:39.326Z,0.00
2023-03-21T03:45:39.320Z,0.00
2023-03-21T03:46:39.335Z,0.00
2023-03-21T03:47:47.732Z,0.00
2023-03-21T03:48:39.296Z,0.00
2023-03-21T03:49:39.268Z,0.00
2023-03-21T03:50:39.507Z,0.00
2023-03-21T03:51:39.251Z,0.00
2023-03-21T03:52:50.052Z,0.00
2023-03-21T03:53:39.236Z,0.00
2023-03-21T03:54:39.226Z,0.00
2023-03-21T03:55:39.202Z,0.00
2023-03-21T03:56:39.200Z,0.00
2023-03-21T03:57:39.204Z,0.00
2023-03-21T03:58:45.222Z,0.00
2023-03-21T03:59:39.162Z,0.00
2023-03-21T04:00:39.237Z,0.00
2023-03-21T04:01:39.228Z,0.00
2023-03-21T04:02:39.195Z,0.00
2023-03-21T04:03:48.374Z,0.00
2023-03-21T04:04:39.234Z,0.00
2023-03-21T04:05:39.095Z,0.00
2023-03-21T04:06:39.082Z,0.00
2023-03-21T04:07:39.072Z,0.00
2023-03-21T04:08:39.060Z,0.00
2023-03-21T04:09:44.602Z,0.00
2023-03-21T04:10:39.345Z,0.00
2023-03-21T04:11:39.033Z,0.00
2023-03-21T04:12:39.024Z,0.00
2023-03-21T04:13:39.028Z,0.00
2023-03-21T04:14:45.825Z,0.00
2023-03-21T04:15:38.984Z,0.00
2023-03-21T04:16:39.039Z,0.00
2023-03-21T04:17:38.962Z,0.00
2023-03-21T04:18:38.951Z,0.00
2023-03-21T04:19:38.977Z,0.00
2023-03-21T04:20:38.936Z,0.00
2023-03-21T04:21:38.916Z,0.00
2023-03-21T04:22:38.910Z,0.00
2023-03-21T04:23:38.893Z,0.00
2023-03-21T04:24:38.881Z,0.00
2023-03-21T04:25:47.607Z,0.00
2023-03-21T04:26:38.861Z,0.00
2023-03-21T04:27:38.850Z,0.00
2023-03-21T04:28:38.840Z,0.00
2023-03-21T04:29:38.875Z,0.00
2023-03-21T04:30:39.103Z,0.00
2023-03-21T04:31:38.828Z,0.00
2023-03-21T04:32:38.798Z,0.00
2023-03-21T04:33:38.805Z,0.00
2023-03-21T04:34:38.769Z,0.00
2023-03-21T04:35:38.812Z,0.00
2023-03-21T04:36:39.090Z,0.00
2023-03-21T04:37:38.736Z,0.00
2023-03-21T04:38:38.732Z,0.00
2023-03-21T04:39:38.720Z,0.00
2023-03-21T04:40:39.141Z,0.00
2023-03-21T04:41:38.692Z,0.00
2023-03-21T04:42:38.679Z,0.00
2023-03-21T04:43:38.678Z,0.00
2023-03-21T04:44:38.665Z,0.00
2023-03-21T04:45:38.685Z,0.00
2023-03-21T04:46:38.633Z,0.00
2023-03-21T04:47:38.711Z,4.00
2023-03-21T04:48:40.611Z,4.00
2023-03-21T04:49:38.600Z,4.00
2023-03-21T04:50:38.811Z,4.00
2023-03-21T04:51:38.578Z,4.00
2023-03-21T04:52:38.581Z,4.00
2023-03-21T04:53:38.577Z,4.00
2023-03-21T04:54:38.569Z,0.00
2023-03-21T04:55:38.862Z,4.00
2023-03-21T04:56:40.520Z,4.00
2023-03-21T04:57:38.555Z,4.00
2023-03-21T04:58:38.496Z,4.00
2023-03-21T04:59:38.494Z,8.00
2023-03-21T05:00:38.477Z,8.00
2023-03-21T05:01:38.489Z,8.00
2023-03-21T05:02:38.483Z,8.00
2023-03-21T05:03:38.479Z,8.00
2023-03-21T05:04:38.430Z,12.00
2023-03-21T05:05:38.778Z,12.00
2023-03-21T05:06:38.409Z,12.00
2023-03-21T05:07:38.402Z,16.00
2023-03-21T05:08:38.392Z,20.00
2023-03-21T05:09:40.378Z,20.00
2023-03-21T05:10:38.367Z,20.00
2023-03-21T05:11:38.355Z,24.00
2023-03-21T05:12:38.341Z,28.00
2023-03-21T05:13:38.333Z,32.00
2023-03-21T05:14:38.313Z,36.00
2023-03-21T05:15:38.804Z,40.00
2023-03-21T05:16:38.329Z,48.00
2023-03-21T05:17:38.309Z,52.00
2023-03-21T05:18:38.276Z,56.00
2023-03-21T05:19:38.258Z,60.00
2023-03-21T05:20:38.249Z,64.00
2023-03-21T05:21:38.238Z,64.00
2023-03-21T05:22:40.288Z,64.00
2023-03-21T05:23:38.290Z,68.00
2023-03-21T05:24:38.204Z,68.00
2023-03-21T05:25:38.519Z,68.00
2023-03-21T05:26:38.184Z,72.00
2023-03-21T05:27:38.177Z,80.00
2023-03-21T05:28:38.173Z,88.00
2023-03-21T05:29:38.154Z,104.00
2023-03-21T05:30:38.164Z,124.00
2023-03-21T05:31:40.120Z,132.00
2023-03-21T05:32:38.118Z,132.00
2023-03-21T05:33:38.128Z,136.00
2023-03-21T05:34:38.095Z,140.00
2023-03-21T05:35:38.362Z,140.00
2023-03-21T05:36:38.066Z,144.00
2023-03-21T05:37:38.059Z,144.00
2023-03-21T05:38:38.051Z,144.00
2023-03-21T05:39:38.034Z,148.00
2023-03-21T05:40:38.028Z,144.00
2023-03-21T05:41:38.026Z,140.00
2023-03-21T05:42:38.004Z,140.00
2023-03-21T05:43:37.996Z,156.00
2023-03-21T05:44:37.978Z,176.00
2023-03-21T05:45:38.262Z,184.00
2023-03-21T05:46:38.012Z,196.00
2023-03-21T05:47:38.135Z,204.00
2023-03-21T05:48:37.936Z,200.00
2023-03-21T05:49:37.971Z,192.00
2023-03-21T05:50:37.909Z,188.00
2023-03-21T05:51:37.902Z,200.00
2023-03-21T05:52:37.886Z,228.00
2023-03-21T05:53:37.878Z,264.00
2023-03-21T05:54:37.869Z,292.00
2023-03-21T05:55:38.272Z,328.00
2023-03-21T05:56:37.845Z,340.00
2023-03-21T05:57:37.839Z,312.00
2023-03-21T05:58:37.848Z,292.00
2023-03-21T05:59:37.817Z,268.00
2023-03-21T06:00:37.797Z,264.00
2023-03-21T06:01:37.791Z,260.00
2023-03-21T06:02:37.793Z,260.00
2023-03-21T06:03:37.827Z,264.00
2023-03-21T06:04:37.756Z,268.00
2023-03-21T06:05:38.100Z,276.00
2023-03-21T06:06:37.737Z,296.00
2023-03-21T06:07:37.727Z,320.00
2023-03-21T06:08:37.712Z,344.00
2023-03-21T06:09:37.705Z,344.00
2023-03-21T06:10:37.691Z,320.00
2023-03-21T06:11:37.714Z,292.00
2023-03-21T06:12:37.664Z,280.00
2023-03-21T06:13:37.654Z,268.00
2023-03-21T06:14:37.666Z,264.00
2023-03-21T06:15:37.986Z,256.00
2023-03-21T06:16:37.631Z,260.00
2023-03-21T06:17:37.624Z,276.00
2023-03-21T06:18:37.601Z,288.00
2023-03-21T06:19:37.586Z,304.00
2023-03-21T06:20:37.574Z,328.00
2023-03-21T06:21:37.587Z,356.00
2023-03-21T06:22:37.551Z,356.00
2023-03-21T06:23:37.581Z,368.00
2023-03-21T06:24:37.536Z,392.00
2023-03-21T06:25:37.898Z,412.00
2023-03-21T06:26:37.509Z,400.00
2023-03-21T06:27:37.500Z,360.00
2023-03-21T06:28:37.485Z,356.00
2023-03-21T06:29:37.478Z,368.00
2023-03-21T06:30:37.471Z,372.00
2023-03-21T06:31:37.497Z,360.00
2023-03-21T06:32:37.443Z,356.00
2023-03-21T06:33:37.437Z,360.00
2023-03-21T06:34:39.435Z,376.00
2023-03-21T06:35:37.677Z,400.00
2023-03-21T06:36:37.405Z,448.00
2023-03-21T06:37:37.411Z,476.00
2023-03-21T06:38:37.391Z,456.00
2023-03-21T06:39:37.361Z,412.00
2023-03-21T06:40:37.357Z,392.00
2023-03-21T06:41:37.337Z,392.00
2023-03-21T06:42:37.327Z,404.00
2023-03-21T06:43:37.314Z,408.00
2023-03-21T06:44:37.303Z,420.00
2023-03-21T06:45:37.588Z,424.00
2023-03-21T06:46:37.369Z,432.00
2023-03-21T06:47:37.271Z,456.00
2023-03-21T06:48:37.266Z,496.00
2023-03-21T06:49:37.254Z,536.00
2023-03-21T06:50:37.235Z,572.00
2023-03-21T06:51:37.318Z,608.00
2023-03-21T06:52:37.219Z,660.00
2023-03-21T06:53:37.237Z,708.00
2023-03-21T06:54:37.198Z,732.00
2023-03-21T06:55:37.376Z,732.00
2023-03-21T06:56:37.175Z,732.00
2023-03-21T06:57:37.158Z,716.00
2023-03-21T06:58:37.148Z,648.00
2023-03-21T06:59:37.134Z,648.00
2023-03-21T07:00:37.177Z,636.00
2023-03-21T07:01:37.114Z,648.00
2023-03-21T07:02:37.163Z,664.00
2023-03-21T07:03:37.090Z,644.00
2023-03-21T07:04:37.082Z,604.00
2023-03-21T07:05:37.383Z,576.00
2023-03-21T07:06:37.059Z,560.00
2023-03-21T07:07:37.047Z,568.00
2023-03-21T07:08:37.069Z,588.00
2023-03-21T07:09:37.056Z,580.00
2023-03-21T07:10:37.012Z,572.00
2023-03-21T07:11:37.029Z,564.00
2023-03-21T07:12:36.990Z,564.00
2023-03-21T07:13:36.975Z,588.00
2023-03-21T07:14:36.967Z,632.00
2023-03-21T07:15:37.213Z,664.00
2023-03-21T07:16:37.026Z,708.00
2023-03-21T07:17:36.943Z,772.00
2023-03-21T07:18:36.941Z,812.00
2023-03-21T07:19:36.913Z,832.00
2023-03-21T07:20:36.909Z,808.00
2023-03-21T07:21:36.897Z,780.00
2023-03-21T07:22:36.878Z,732.00
2023-03-21T07:23:36.867Z,760.00
2023-03-21T07:24:36.862Z,772.00
2023-03-21T07:25:37.525Z,716.00
2023-03-21T07:26:36.847Z,652.00
2023-03-21T07:27:38.173Z,656.00
2023-03-21T07:28:36.814Z,636.00
2023-03-21T07:29:36.801Z,560.00
2023-03-21T07:30:36.788Z,552.00
2023-03-21T07:31:36.916Z,568.00
2023-03-21T07:32:36.772Z,568.00
2023-03-21T07:33:36.755Z,584.00
2023-03-21T07:34:36.743Z,584.00
2023-03-21T07:35:37.108Z,596.00
2023-03-21T07:36:36.724Z,612.00
2023-03-21T07:37:38.150Z,568.00
2023-03-21T07:38:36.698Z,548.00
2023-03-21T07:39:36.706Z,532.00
2023-03-21T07:40:37.073Z,532.00
2023-03-21T07:41:36.696Z,576.00
2023-03-21T07:42:36.709Z,616.00
2023-03-21T07:43:38.390Z,652.00
2023-03-21T07:44:36.654Z,648.00
2023-03-21T07:45:36.877Z,672.00
2023-03-21T07:46:36.607Z,712.00
2023-03-21T07:47:36.626Z,724.00
2023-03-21T07:48:36.584Z,708.00
2023-03-21T07:49:36.571Z,652.00
2023-03-21T07:50:36.574Z,636.00
2023-03-21T07:51:36.553Z,636.00
2023-03-21T07:52:36.548Z,636.00
2023-03-21T07:53:36.529Z,668.00
2023-03-21T07:54:36.517Z,684.00
2023-03-21T07:55:36.829Z,680.00
2023-03-21T07:56:36.511Z,660.00
2023-03-21T07:57:36.504Z,648.00
2023-03-21T07:58:36.495Z,616.00
2023-03-21T07:59:36.460Z,576.00
2023-03-21T08:00:36.454Z,560.00
2023-03-21T08:01:36.440Z,556.00
2023-03-21T08:02:36.519Z,580.00
2023-03-21T08:03:36.550Z,620.00
2023-03-21T08:04:36.406Z,664.00
2023-03-21T08:05:37.053Z,720.00
2023-03-21T08:06:36.386Z,732.00
2023-03-21T08:07:36.368Z,728.00
2023-03-21T08:08:36.356Z,680.00
2023-03-21T08:09:36.348Z,640.00
2023-03-21T08:10:36.351Z,692.00
2023-03-21T08:11:36.333Z,760.00
2023-03-21T08:12:36.313Z,800.00
2023-03-21T08:13:36.341Z,816.00
2023-03-21T08:14:36.292Z,832.00
2023-03-21T08:15:36.469Z,836.00
2023-03-21T08:16:36.299Z,864.00
2023-03-21T08:17:36.265Z,928.00
2023-03-21T08:18:36.243Z,976.00
2023-03-21T08:19:36.233Z,1000.00
2023-03-21T08:20:36.237Z,980.00
2023-03-21T08:21:36.213Z,976.00
2023-03-21T08:22:36.201Z,996.00
2023-03-21T08:23:36.229Z,992.00
2023-03-21T08:24:36.179Z,936.00
2023-03-21T08:25:36.618Z,952.00
2023-03-21T08:26:36.151Z,948.00
2023-03-21T08:27:36.148Z,896.00
2023-03-21T08:28:36.145Z,840.00
2023-03-21T08:29:36.152Z,848.00
2023-03-21T08:30:36.168Z,864.00
2023-03-21T08:31:36.108Z,896.00
2023-03-21T08:32:36.088Z,984.00
2023-03-21T08:33:36.079Z,984.00
2023-03-21T08:34:36.066Z,1040.00
2023-03-21T08:35:37.792Z,1120.00
2023-03-21T08:36:36.043Z,1172.00
2023-03-21T08:37:36.057Z,1260.00
2023-03-21T08:38:36.037Z,1284.00
2023-03-21T08:39:36.074Z,1236.00
2023-03-21T08:40:35.998Z,1156.00
2023-03-21T08:41:36.009Z,1100.00
2023-03-21T08:42:35.980Z,1100.00
2023-03-21T08:43:35.977Z,1216.00
2023-03-21T08:44:35.962Z,1416.00
2023-03-21T08:45:36.196Z,1484.00
2023-03-21T08:46:35.962Z,1376.00
2023-03-21T08:47:35.919Z,1224.00
2023-03-21T08:48:35.912Z,1180.00
2023-03-21T08:49:35.900Z,1164.00
2023-03-21T08:50:35.884Z,1144.00
2023-03-21T08:51:35.880Z,1136.00
2023-03-21T08:52:35.867Z,1048.00
2023-03-21T08:53:35.863Z,932.00
2023-03-21T08:54:35.851Z,924.00
2023-03-21T08:55:36.008Z,992.00
2023-03-21T08:56:37.460Z,984.00
2023-03-21T08:57:35.807Z,940.00
2023-03-21T08:58:35.795Z,1004.00
2023-03-21T08:59:35.790Z,980.00
2023-03-21T09:00:35.774Z,968.00
2023-03-21T09:01:35.824Z,1000.00
2023-03-21T09:02:35.765Z,1084.00
2023-03-21T09:03:35.746Z,1224.00
2023-03-21T09:04:35.743Z,1208.00
2023-03-21T09:05:36.004Z,1124.00
2023-03-21T09:06:35.708Z,1016.00
2023-03-21T09:07:35.713Z,928.00
2023-03-21T09:08:35.682Z,928.00
2023-03-21T09:09:35.673Z,1020.00
2023-03-21T09:10:35.664Z,1028.00
2023-03-21T09:11:35.648Z,916.00
2023-03-21T09:12:35.642Z,900.00
2023-03-21T09:13:35.627Z,1044.00
2023-03-21T09:14:35.619Z,1056.00
2023-03-21T09:15:35.699Z,976.00
2023-03-21T09:16:35.592Z,1000.00
2023-03-21T09:17:35.628Z,1184.00
2023-03-21T09:18:35.572Z,1300.00
2023-03-21T09:19:35.559Z,1336.00
2023-03-21T09:20:35.585Z,1404.00
2023-03-21T09:21:35.549Z,1412.00
2023-03-21T09:22:35.530Z,1396.00
2023-03-21T09:23:35.523Z,1364.00
2023-03-21T09:24:35.501Z,1476.00
2023-03-21T09:25:35.527Z,1520.00
2023-03-21T09:26:35.479Z,1344.00
2023-03-21T09:27:35.536Z,1280.00
2023-03-21T09:28:35.464Z,1292.00
2023-03-21T09:29:35.442Z,1356.00
2023-03-21T09:30:35.438Z,1392.00
2023-03-21T09:31:35.479Z,1496.00
2023-03-21T09:32:35.410Z,1540.00
2023-03-21T09:33:35.461Z,1556.00
2023-03-21T09:34:35.385Z,1712.00
2023-03-21T09:35:35.574Z,1960.00
2023-03-21T09:36:35.367Z,2212.00
2023-03-21T09:37:35.357Z,2084.00
2023-03-21T09:38:35.342Z,1672.00
2023-03-21T09:39:35.356Z,1368.00
2023-03-21T09:40:35.315Z,1156.00
2023-03-21T09:41:35.305Z,1092.00
2023-03-21T09:42:35.295Z,1288.00
2023-03-21T09:43:35.289Z,1672.00
2023-03-21T09:44:35.272Z,1744.00
2023-03-21T09:45:35.633Z,1748.00
2023-03-21T09:46:35.295Z,1756.00
2023-03-21T09:47:35.236Z,1612.00
2023-03-21T09:48:37.664Z,1392.00
2023-03-21T09:49:35.238Z,1300.00
2023-03-21T09:50:35.210Z,1292.00
2023-03-21T09:51:35.196Z,1280.00
2023-03-21T09:52:35.186Z,1248.00
2023-03-21T09:53:35.169Z,1196.00
2023-03-21T09:54:35.158Z,1208.00
2023-03-21T09:55:35.208Z,1204.00
2023-03-21T09:56:35.156Z,1284.00
2023-03-21T09:57:35.124Z,1256.00
2023-03-21T09:58:35.119Z,1136.00
2023-03-21T09:59:35.100Z,1092.00
2023-03-21T10:00:35.133Z,1100.00
2023-03-21T10:01:35.103Z,1260.00
2023-03-21T10:02:35.066Z,1548.00
2023-03-21T10:03:35.099Z,1732.00
2023-03-21T10:04:35.099Z,1768.00
2023-03-21T10:05:35.055Z,1732.00
2023-03-21T10:06:35.017Z,1756.00
2023-03-21T10:07:35.004Z,1728.00
2023-03-21T10:08:34.997Z,1576.00
2023-03-21T10:09:35.000Z,1492.00
2023-03-21T10:10:34.987Z,1604.00
2023-03-21T10:11:34.960Z,1724.00
2023-03-21T10:12:35.053Z,1828.00
2023-03-21T10:13:34.940Z,1824.00
2023-03-21T10:14:34.942Z,1816.00
2023-03-21T10:15:34.921Z,1788.00
2023-03-21T10:16:34.983Z,1804.00
2023-03-21T10:17:34.892Z,1848.00
2023-03-21T10:18:34.878Z,1904.00
2023-03-21T10:19:34.887Z,1876.00
2023-03-21T10:20:34.854Z,1896.00
2023-03-21T10:21:59.126Z,2076.00
2023-03-21T10:22:34.838Z,2240.00
2023-03-21T10:23:34.820Z,2132.00
2023-03-21T10:24:34.832Z,2032.00
2023-03-21T10:25:34.800Z,2304.00
2023-03-21T10:26:34.799Z,2312.00
2023-03-21T10:27:34.778Z,2228.00
2023-03-21T10:28:50.002Z,1988.00
2023-03-21T10:29:34.846Z,1796.00
2023-03-21T10:30:34.736Z,1764.00
2023-03-21T10:31:34.838Z,1772.00
2023-03-21T10:32:34.722Z,1704.00
2023-03-21T10:33:34.705Z,1648.00
2023-03-21T10:34:34.706Z,1724.00
2023-03-21T10:35:34.770Z,1856.00
2023-03-21T10:36:34.752Z,2248.00
2023-03-21T10:37:34.686Z,2696.00
2023-03-21T10:38:34.656Z,2760.00
2023-03-21T10:39:34.638Z,2684.00
2023-03-21T10:40:35.582Z,2720.00
2023-03-21T10:41:34.612Z,2772.00
2023-03-21T10:42:34.600Z,2860.00
2023-03-21T10:43:34.593Z,2528.00
2023-03-21T10:44:34.577Z,2436.00
2023-03-21T10:45:34.595Z,3056.00
2023-03-21T10:46:36.246Z,3452.00
2023-03-21T10:47:34.914Z,3080.00
2023-03-21T10:48:34.670Z,2744.00
2023-03-21T10:49:40.588Z,2420.00
2023-03-21T10:50:34.559Z,1992.00
2023-03-21T10:51:34.498Z,1584.00
2023-03-21T10:52:34.493Z,1444.00
2023-03-21T10:53:34.499Z,1476.00
2023-03-21T10:54:34.464Z,1608.00
2023-03-21T10:55:34.486Z,1764.00
2023-03-21T10:56:34.451Z,1808.00
2023-03-21T10:57:34.433Z,1704.00
2023-03-21T10:58:34.425Z,1560.00
2023-03-21T10:59:34.406Z,1484.00
2023-03-21T11:00:34.414Z,1464.00
2023-03-21T11:01:34.413Z,1480.00
2023-03-21T11:02:34.457Z,1248.00
2023-03-21T11:03:34.364Z,1092.00
2023-03-21T11:04:34.349Z,1072.00
2023-03-21T11:05:34.342Z,1100.00
2023-03-21T11:06:34.334Z,1100.00
2023-03-21T11:07:34.316Z,1080.00
2023-03-21T11:08:34.310Z,1080.00
2023-03-21T11:09:34.321Z,1084.00
2023-03-21T11:10:34.287Z,1068.00
2023-03-21T11:11:34.275Z,1116.00
2023-03-21T11:12:34.272Z,1180.00
2023-03-21T11:13:34.257Z,1204.00
2023-03-21T11:14:34.240Z,1244.00
2023-03-21T11:15:34.235Z,1352.00
2023-03-21T11:16:34.302Z,1424.00
2023-03-21T11:17:34.208Z,1516.00
2023-03-21T11:18:34.196Z,1400.00
2023-03-21T11:19:34.187Z,1444.00
2023-03-21T11:20:34.175Z,1524.00
2023-03-21T11:21:34.162Z,1532.00
2023-03-21T11:22:34.155Z,1512.00
2023-03-21T11:23:34.157Z,1572.00
2023-03-21T11:24:34.128Z,1684.00
2023-03-21T11:25:34.148Z,1664.00
2023-03-21T11:26:34.104Z,1476.00
2023-03-21T11:27:34.095Z,1416.00
2023-03-21T11:28:34.087Z,1416.00
2023-03-21T11:29:34.071Z,1484.00
2023-03-21T11:30:34.106Z,1536.00
2023-03-21T11:31:34.053Z,1600.00
2023-03-21T11:32:34.045Z,1552.00
2023-03-21T11:33:34.038Z,1344.00
2023-03-21T11:34:34.014Z,1208.00
2023-03-21T11:35:34.014Z,1112.00
2023-03-21T11:36:33.997Z,1152.00
2023-03-21T11:37:33.981Z,1388.00
2023-03-21T11:38:33.973Z,1596.00
2023-03-21T11:39:33.962Z,1572.00
2023-03-21T11:40:33.962Z,1468.00
2023-03-21T11:41:33.964Z,1264.00
2023-03-21T11:42:33.949Z,1344.00
2023-03-21T11:43:33.919Z,1708.00
2023-03-21T11:44:33.939Z,1952.00
2023-03-21T11:45:33.901Z,1780.00
2023-03-21T11:46:34.003Z,1552.00
2023-03-21T11:47:33.871Z,1392.00
2023-03-21T11:48:33.867Z,1300.00
2023-03-21T11:49:33.842Z,1244.00
2023-03-21T11:50:33.909Z,1356.00
2023-03-21T11:51:33.819Z,1720.00
2023-03-21T11:52:33.809Z,1884.00
2023-03-21T11:53:33.796Z,1856.00
2023-03-21T11:54:33.805Z,1820.00
2023-03-21T11:55:33.783Z,1772.00
2023-03-21T11:56:33.765Z,1812.00
2023-03-21T11:57:33.788Z,1700.00
2023-03-21T11:58:33.771Z,1592.00
2023-03-21T11:59:33.736Z,1616.00
2023-03-21T12:00:33.733Z,1692.00
2023-03-21T12:01:33.703Z,1768.00
2023-03-21T12:02:33.729Z,1920.00
2023-03-21T12:03:46.884Z,2160.00
2023-03-21T12:04:33.713Z,2288.00
2023-03-21T12:05:33.654Z,2304.00
2023-03-21T12:06:33.647Z,2340.00
2023-03-21T12:07:33.637Z,2552.00
2023-03-21T12:08:33.622Z,2700.00
2023-03-21T12:09:33.617Z,2820.00
2023-03-21T12:10:33.623Z,3036.00
2023-03-21T12:11:33.600Z,3192.00
2023-03-21T12:12:39.110Z,3400.00
2023-03-21T12:13:33.602Z,3240.00
2023-03-21T12:14:33.555Z,2928.00
2023-03-21T12:15:33.567Z,2764.00
2023-03-21T12:16:33.595Z,2572.00
2023-03-21T12:17:33.525Z,2464.00
2023-03-21T12:18:33.514Z,2292.00
2023-03-21T12:19:33.504Z,1896.00
2023-03-21T12:20:33.491Z,1632.00
2023-03-21T12:21:33.484Z,1448.00
2023-03-21T12:22:33.468Z,1460.00
2023-03-21T12:23:33.568Z,1608.00
2023-03-21T12:24:33.445Z,1592.00
2023-03-21T12:25:33.434Z,1472.00
2023-03-21T12:26:33.431Z,1528.00
2023-03-21T12:27:33.414Z,1632.00
2023-03-21T12:28:33.587Z,1656.00
2023-03-21T12:29:33.522Z,1716.00
2023-03-21T12:30:33.378Z,1800.00
2023-03-21T12:31:33.486Z,1884.00
2023-03-21T12:32:35.502Z,2044.00
2023-03-21T12:33:33.353Z,1996.00
2023-03-21T12:34:33.332Z,1852.00
2023-03-21T12:35:33.358Z,1724.00
2023-03-21T12:36:33.314Z,1680.00
2023-03-21T12:37:33.298Z,1632.00
2023-03-21T12:38:33.291Z,1720.00
2023-03-21T12:39:33.292Z,1772.00
2023-03-21T12:40:33.267Z,1852.00